Casa Branca, Brazil
Current Conditions -  °F | °C
As of 5:00 PM on Monday 20 Oct 2014 (Local Time) from SBYS Reporting Station
Broken Clouds Broken Clouds  
Wind Chill: 77°   Ceiling: 10000
Heat Index: 79°   Visibility: 6mi
Dew Point: 63°   Wind: 9mph
Humidity: 61%   Direction: 150°SSE
Pressure: 30"   Gusts: NA
Location:  21.78°S, 47.08°W
Report Text: SBYS 202000Z 15008KT 9999 SCT030 BKN100 25/17 Q1016
Loading
Personal Weather Stations






























Interactive Weather Map
Tropical Storm Tracking
New forecast layout! Learn more

10-Day Weather Forecast

Advertisements
Track Severe Weather on mobile